»·PEaware :: N989MA KBFL-KCMA

N989MA :: KBFL-KCMA

FLIGHT INFORMATION

Flight Status: Arrived
Operator: Privately registered:
United States
More flights under this callsign
Pilot: Terry F. (30390)
Aircraft: MOONEY M-20 201 202 205 220 ATS MSE
(M20P)
More flights by this aircraft type
Origin: KBFL Meadows
United States
Destination: KCMA Camarillo
United States
More flights between these airports :: More routes between these airports
Route: DIRECT
File this flight plan on PilotEdge
Remarks:
Altitude:
(Current/Filed)
10,500ft
Speed:
(Current/Filed)
150kts
Departed: 23-Nov-20 10:55 AM
Arrived: 23-Nov-20 11:35 AM
Distance/Time
Traveled:
73nm/0:40
Distance/Time
To Go:
Arrived

Flight Plot

Page will automatically refresh every two minutes.


Map Options




Map Legend


Flown Route
Filed Route
Departure Airport
Arrival Airport
Navaid (VOR, NDB)
Fix

Horizontal Profiles

Position Reports

Time Latitude Longitude Heading Altitude Ground
Speed
23-Nov-20 10:37 35.429660 -119.046618 136 493ft 0kts
23-Nov-20 10:38 35.429660 -119.046618 136 493ft 0kts
23-Nov-20 10:39 35.429660 -119.046618 136 493ft 0kts
23-Nov-20 10:40 35.429660 -119.046618 136 493ft 0kts
23-Nov-20 10:41 35.429660 -119.046618 136 493ft 0kts
23-Nov-20 10:42 35.429660 -119.046618 136 493ft 0kts
23-Nov-20 10:43 35.429660 -119.046618 136 493ft 0kts
23-Nov-20 10:44 35.429660 -119.046618 136 493ft 0kts
23-Nov-20 10:45 35.429660 -119.046618 136 493ft 0kts
23-Nov-20 10:46 35.429660 -119.046618 136 493ft 0kts
23-Nov-20 10:47 35.429660 -119.046618 136 493ft 0kts
23-Nov-20 10:48 35.429660 -119.046618 136 493ft 0kts
23-Nov-20 10:49 35.427820 -119.046639 134 484ft 14kts
23-Nov-20 10:50 35.425874 -119.044957 245 478ft 0kts
23-Nov-20 10:51 35.425874 -119.044957 246 478ft 0kts
23-Nov-20 10:52 35.425874 -119.044957 246 478ft 0kts
23-Nov-20 10:53 35.425580 -119.045346 227 476ft 8kts
23-Nov-20 10:54 35.437244 -119.059763 316 780ft 113kts
23-Nov-20 10:55 35.458067 -119.056459 129 1454ft 113kts
23-Nov-20 10:56 35.438081 -119.027916 121 2024ft 112kts
23-Nov-20 10:57 35.422830 -118.995884 158 2546ft 114kts
23-Nov-20 10:58 35.390993 -119.001705 177 2993ft 120kts
23-Nov-20 10:59 35.352672 -119.004534 180 2989ft 152kts
23-Nov-20 11:00 35.309233 -119.008118 180 2986ft 158kts
23-Nov-20 11:01 35.265304 -119.006303 172 2986ft 158kts
23-Nov-20 11:02 35.221635 -118.999719 168 2986ft 158kts
23-Nov-20 11:03 35.178175 -118.992397 170 2985ft 158kts
23-Nov-20 11:04 35.137741 -118.979043 165 3240ft 146kts
23-Nov-20 11:05 35.098913 -118.965333 165 3472ft 145kts
23-Nov-20 11:06 35.058762 -118.951236 166 3477ft 153kts
23-Nov-20 11:07 35.017489 -118.936751 166 3474ft 155kts
23-Nov-20 11:08 34.978296 -118.923286 174 3917ft 139kts
23-Nov-20 11:10 34.940681 -118.924308 179 4407ft 134kts
23-Nov-20 11:11 34.901568 -118.913322 175 4508ft 152kts
23-Nov-20 11:12 34.867186 -118.887410 132 4967ft 153kts
23-Nov-20 11:13 34.830337 -118.865092 190 4887ft 160kts
23-Nov-20 11:14 34.790238 -118.872659 127 4380ft 172kts
23-Nov-20 11:15 34.752103 -118.841146 168 4723ft 177kts
23-Nov-20 11:16 34.708840 -118.863610 211 4551ft 176kts
23-Nov-20 11:17 34.679509 -118.898828 248 5832ft 135kts
23-Nov-20 11:18 34.644704 -118.901297 161 6876ft 155kts
23-Nov-20 11:19 34.601597 -118.911192 198 7404ft 177kts
23-Nov-20 11:20 34.555743 -118.932067 204 7850ft 178kts
23-Nov-20 11:21 34.509266 -118.954259 205 8313ft 180kts
23-Nov-20 11:22 34.461200 -118.977188 205 8447ft 193kts
23-Nov-20 11:23 34.409665 -119.001742 204 8044ft 209kts
23-Nov-20 11:24 34.358147 -119.026097 204 7029ft 180kts
23-Nov-20 11:25 34.358516 -119.059544 15 6048ft 117kts
23-Nov-20 11:26 34.376109 -119.026775 59 5065ft 120kts
23-Nov-20 11:27 34.380194 -118.990348 142 4073ft 135kts
23-Nov-20 11:28 34.356597 -119.015296 260 3435ft 121kts
23-Nov-20 11:28 34.346739 -119.046443 200 3459ft 125kts
23-Nov-20 11:30 34.308584 -119.065625 206 3455ft 134kts
23-Nov-20 11:31 34.275580 -119.088221 203 3206ft 130kts
23-Nov-20 11:31 34.253062 -119.106238 217 2455ft 112kts
23-Nov-20 11:33 34.226212 -119.120871 183 1230ft 86kts
23-Nov-20 11:33 34.213901 -119.109503 87 173ft 72kts
23-Nov-20 11:34 34.213249 -119.095334 211 63ft 15kts
23-Nov-20 11:35 34.212931 -119.095588 200 63ft 0kts
23-Nov-20 11:36 34.210662 -119.095415 270 61ft 0kts

Navigation Log

Ident Type
Flight plan parsing failed, navigation log unavailable